🇳🇱 VeloStatistics

👤 Arkimedes Arguelyes Rodriges

NationaliteitRUS
Geboortedatum1988-07-09
Overlijdensdatum -
Lengte / Gewicht?? cm / ?? kg
Profzeges0
Profzeges 20260
Wedstrijddagen191

🚴 Ploegenhistorie

PloegCodeJaar
Katusha KAT 2011

📊 Prestatie Matrix

Jaar
GdI
TdF
VaE
MSR
RvV
PR
LBL
LOM
WK
PN
TA
VPV
VaC
TdR
CdD
TdS
GW
AGR
FW
PT
2011 - - - - - - - DNF - - - - - - - - - - - -

🏆 Resultaten (99)

Datum Pos Wedstrijd UCI Ploeg
2014-08-10 66 2014 | Volta a Portugal, POR (10.8) 2.1 -
2014-08-05 12 2014 | Volta a Portugal, POR | Rit 6 (5.8) 2.1 -
2014-06-29 17 2014 | N.K. Rusland, RUS (29.6) NC -
2014-05-18 63 2014 | Vuelta Castilla y Leon, SPA (18.5) 2.1 -
2014-04-27 5 2014 | G.P. Industrie del Marmo, ITA (27.4) 1.2 -
2014-04-13 6 2014 | G.P. Primavera (Amorebieta), SPA (13.4) 1.1 -
2014-04-06 38 2014 | Vuelta a la Rioja, SPA (6.4) 1.1 -
2014-04-05 36 2014 | G.P. Miguel Indurain, SPA (5.4) 1.1 -
2014-03-23 28 2014 | G.P. Cholet - Pays de Loire, FRA (23.3) 1.1 -
2014-03-22 65 2014 | Classic Loire Atlantique, FRA (22.3) 1.1 -
2014-03-20 80 2014 | G.P. Nobili Rubinetterie - Stresa, ITA (20.3) 1.1 -
2014-02-21 75 2014 | Trofeo Laigueglia, ITA (21.2) 1.1 -
2013-09-07 50 2013 | Settimana Ciclistica Lombarda, ITA (7.9) 2.1 -
2013-08-31 39 2013 | Memorial Marco Pantani, ITA (31.8) 1.1 -
2013-08-21 79 2013 | Coppa Agostoni, ITA (21.8) 1.1 -
2013-07-31 13 2013 | Circuit Getxo - Memorial Ricardo Otxoa, SPA (31.7) 1.1 -
2013-07-28 8 2013 | Trofeo Matteotti (Pescara), ITA (28.7) 1.1 -
2013-07-14 33 2013 | Giro dell'Appennino, ITA (14.7) 1.1 -
2013-07-07 18 2013 | Giro del Medio Brenta, ITA (7.7) 1.2 -
2013-06-29 20 2013 | Omloop Het Nieuwsblad U23, BEL (29.6) 1.2 -
2013-06-16 45 2013 | Tour of Slovenia, SLO (16.6) 2.1 -
2013-05-12 16 2013 | Vuelta a Asturias, SPA (12.5) 2.1 -
2013-05-04 21 2013 | Vuelta a la Comunidad de Madrid, SPA (4.5) 1.1 -
2013-04-28 18 2013 | Giro della Toscana, ITA (28.4) 1.1 -
2013-04-27 22 2013 | G.P. Artigianato (Larciano), ITA (27.4) 1.1 -
2013-04-14 40 2013 | Vuelta Castilla y Leon, SPA (14.4) 2.1 -
2013-04-07 37 2013 | G.P. Primavera (Amorebieta), SPA (7.4) 1.1 -
2013-03-31 44 2013 | Vuelta a la Rioja, SPA (31.3) 1.1 -
2013-03-24 63 2013 | Settimana Internazionale Coppi - Bartali, ITA (24.3) 2.1 -
2013-03-14 99 2013 | G.P. Nobili Rubinetterie - Stresa, ITA (14.3) 1.1 -
2013-02-28 97 2013 | G.P. Camaiore, ITA (28.2) 1.1 -
2012-08-26 73 2012 | USA Pro Cycling Challenge, USA (26.8) 2.HC -
2012-07-31 26 2012 | Circuit Getxo - Memorial Ricardo Otxoa, SPA (31.7) 1.1 -
2012-07-25 84 2012 | G.P. Villafranca de Ordizia, SPA (25.7) 1.1 -
2012-07-08 61 2012 | Course de Solidarnosc et des Champions Olympiques, POL (8.7) 2.1 -
2012-06-07 85 2012 | G.P. Kanton Aargau (Gippingen), ZWI (7.6) 1.1 -
2012-05-26 34 2012 | G.P. Tartu, EST (26.5) 1.1 -
2012-05-25 16 2012 | EOS Tallinn G.P., EST (25.5) 1.1 -
2012-05-19 39 2012 | Jurmala G.P., LAT (19.5) 1.2 -
2012-04-05 52 2012 | G.P. Pino Cerami, BEL (5.4) 1.1 -
2012-02-29 95 2012 | G.P. Samyn (Fayt-le-Franc), BEL (29.2) 1.1 -
2012-02-19 132 2012 | Volta ao Algarve, POR (19.2) 2.1 -
2011-10-15 DNF 2011 | Il Lombardia, ITA (15.10) 1.WT KAT
2011-10-13 43 2011 | Giro del Piemonte, ITA (13.10) 1.HC -
2011-10-06 70 2011 | Coppa Sabatini (Peccioli), ITA (6.10) 1.1 -
2011-10-03 126 2011 | Munsterland Giro, DUI (3.10) 1.1 -
2011-10-02 102 2011 | Circuit Franco-Belge, BEL (2.10) 2.1 -
2011-09-18 86 2011 | G.P. Isbergues, FRA (18.9) 1.1 -
2011-09-14 70 2011 | G.P. Wallonie, BEL (14.9) 1.1 -
2011-09-11 67 2011 | G.P. de Fourmies, FRA (11.9) 1.HC -